createdAt,value
2023-03-26T00:01:37.529Z,71.75
2023-03-26T00:04:06.937Z,72.34
2023-03-26T00:06:38.943Z,72.20
2023-03-26T00:09:09.342Z,72.29
2023-03-26T00:11:36.447Z,72.28
2023-03-26T00:14:03.756Z,71.88
2023-03-26T00:16:32.503Z,71.28
2023-03-26T00:19:01.333Z,71.49
2023-03-26T00:21:30.348Z,71.51
2023-03-26T00:24:00.934Z,71.49
2023-03-26T00:26:29.620Z,72.41
2023-03-26T00:28:57.851Z,71.88
2023-03-26T00:31:24.759Z,72.01
2023-03-26T00:33:56.789Z,72.21
2023-03-26T00:36:26.832Z,71.97
2023-03-26T00:38:54.639Z,72.15
2023-03-26T00:41:26.329Z,72.71
2023-03-26T00:43:56.740Z,72.52
2023-03-26T00:46:29.196Z,72.00
2023-03-26T00:48:59.854Z,72.49
2023-03-26T00:51:28.705Z,71.95
2023-03-26T00:53:57.472Z,72.30
2023-03-26T00:56:25.068Z,73.09
2023-03-26T00:58:52.137Z,73.89
2023-03-26T01:01:27.929Z,74.39
2023-03-26T01:04:08.686Z,73.97
2023-03-26T01:06:38.892Z,75.25
2023-03-26T01:09:18.730Z,75.13
2023-03-26T01:11:45.800Z,76.08
2023-03-26T01:14:17.358Z,75.98
2023-03-26T01:16:53.496Z,75.92
2023-03-26T01:19:42.406Z,76.93
2023-03-26T01:22:12.036Z,77.83
2023-03-26T01:24:40.025Z,78.31
2023-03-26T01:27:51.738Z,78.94
2023-03-26T01:30:21.623Z,78.53
2023-03-26T01:33:06.897Z,79.08
2023-03-26T01:35:52.476Z,79.46
2023-03-26T01:38:35.607Z,81.27
2023-03-26T01:41:19.789Z,82.06
2023-03-26T01:44:09.244Z,82.19
2023-03-26T01:46:36.561Z,82.31
2023-03-26T01:49:05.235Z,82.82
2023-03-26T01:51:34.854Z,84.89
2023-03-26T01:54:06.008Z,85.10
2023-03-26T01:57:01.903Z,85.47
2023-03-26T01:59:50.693Z,86.03
2023-03-26T02:02:30.943Z,85.88
2023-03-26T02:05:04.481Z,87.61
2023-03-26T02:07:40.516Z,87.80
2023-03-26T02:10:13.857Z,87.95
2023-03-26T02:12:42.921Z,88.22
2023-03-26T02:15:11.538Z,88.69
2023-03-26T02:17:40.432Z,88.72
2023-03-26T02:20:13.964Z,88.36
2023-03-26T02:22:45.669Z,89.12
2023-03-26T02:25:17.948Z,90.12
2023-03-26T02:27:45.820Z,92.10
2023-03-26T02:30:25.793Z,89.93
2023-03-26T02:32:54.310Z,92.67
2023-03-26T02:35:22.556Z,92.16
2023-03-26T02:37:51.006Z,92.70
2023-03-26T02:40:21.232Z,93.78
2023-03-26T02:42:49.074Z,93.07
2023-03-26T02:45:16.184Z,94.54
2023-03-26T02:47:43.433Z,92.61
2023-03-26T02:50:12.030Z,91.99
2023-03-26T02:52:39.054Z,93.54
2023-03-26T02:55:07.371Z,93.04
2023-03-26T02:57:34.649Z,95.75
2023-03-26T03:00:04.917Z,92.78
2023-03-26T03:02:31.718Z,92.35
2023-03-26T03:05:01.643Z,94.67
2023-03-26T03:07:29.142Z,94.77
2023-03-26T03:09:56.201Z,94.40
2023-03-26T03:12:22.973Z,93.87
2023-03-26T03:14:50.001Z,94.22
2023-03-26T03:17:16.820Z,94.25
2023-03-26T03:19:43.856Z,93.51
2023-03-26T03:22:10.748Z,94.08
2023-03-26T03:24:38.714Z,93.70
2023-03-26T03:27:05.654Z,91.83
2023-03-26T03:29:34.403Z,90.97
2023-03-26T03:32:02.193Z,92.11
2023-03-26T03:34:29.304Z,92.26
2023-03-26T03:36:56.152Z,93.01
2023-03-26T03:39:23.251Z,94.65
2023-03-26T03:41:50.349Z,93.50
2023-03-26T03:44:17.396Z,94.02
2023-03-26T03:46:44.230Z,93.86
2023-03-26T03:49:11.374Z,93.11
2023-03-26T03:51:38.210Z,91.83
2023-03-26T03:54:08.519Z,92.80
2023-03-26T03:56:36.121Z,92.18
2023-03-26T03:59:03.225Z,90.33
2023-03-26T04:01:30.838Z,88.55
2023-03-26T04:03:58.812Z,88.54
2023-03-26T04:06:25.976Z,86.30
2023-03-26T04:08:53.054Z,87.14
2023-03-26T04:11:23.242Z,88.18
2023-03-26T04:13:50.313Z,87.98
2023-03-26T04:16:18.253Z,87.43
2023-03-26T04:18:46.409Z,86.27
2023-03-26T04:21:16.174Z,86.37
2023-03-26T04:23:43.348Z,86.22
2023-03-26T04:26:16.272Z,86.47
2023-03-26T04:28:53.326Z,87.48
2023-03-26T04:31:24.343Z,85.80
2023-03-26T04:33:55.214Z,86.37
2023-03-26T04:36:32.273Z,88.29
2023-03-26T04:39:03.225Z,86.39
2023-03-26T04:41:30.254Z,88.13
2023-03-26T04:43:57.289Z,85.72
2023-03-26T04:46:24.346Z,87.78
2023-03-26T04:48:52.476Z,90.40
2023-03-26T04:51:22.019Z,90.74
2023-03-26T04:54:00.345Z,91.27
2023-03-26T04:56:51.365Z,93.57
2023-03-26T04:59:26.135Z,88.85
2023-03-26T05:01:53.793Z,90.03
2023-03-26T05:04:21.094Z,89.24
2023-03-26T05:06:48.201Z,88.36
2023-03-26T05:09:15.735Z,87.62
2023-03-26T05:11:42.729Z,87.76
2023-03-26T05:14:09.913Z,86.86
2023-03-26T05:16:37.549Z,84.93
2023-03-26T05:19:04.873Z,85.29
2023-03-26T05:21:31.690Z,83.24
2023-03-26T05:23:58.801Z,82.97
2023-03-26T05:26:26.061Z,82.55
2023-03-26T05:28:53.094Z,81.39
2023-03-26T05:31:21.375Z,79.89
2023-03-26T05:33:49.152Z,78.55
2023-03-26T05:36:17.285Z,78.07
2023-03-26T05:38:49.335Z,77.72
2023-03-26T05:41:17.287Z,77.37
2023-03-26T05:43:49.003Z,78.42
2023-03-26T05:46:16.430Z,78.18
2023-03-26T05:48:43.755Z,77.04
2023-03-26T05:51:10.624Z,76.61
2023-03-26T05:53:37.729Z,76.46
2023-03-26T05:56:04.820Z,75.49
2023-03-26T05:58:33.749Z,74.89
2023-03-26T06:01:09.459Z,72.42
2023-03-26T06:03:39.732Z,71.10
2023-03-26T06:06:15.506Z,70.68
2023-03-26T06:08:48.864Z,69.98
2023-03-26T06:11:29.682Z,67.90
2023-03-26T06:13:56.844Z,67.53
2023-03-26T06:16:26.957Z,66.51
2023-03-26T06:18:56.176Z,65.83
2023-03-26T06:21:23.939Z,65.18
2023-03-26T06:23:51.806Z,64.59
2023-03-26T06:26:18.916Z,63.82
2023-03-26T06:28:46.181Z,64.13
2023-03-26T06:31:13.072Z,62.49
2023-03-26T06:33:40.397Z,62.99
2023-03-26T06:36:07.557Z,62.69
2023-03-26T06:38:34.774Z,63.13
2023-03-26T06:41:06.280Z,62.94
2023-03-26T06:43:33.989Z,62.35
2023-03-26T06:46:01.673Z,61.03
2023-03-26T06:48:28.863Z,61.27
2023-03-26T06:50:55.749Z,61.17
2023-03-26T06:53:23.154Z,61.73
2023-03-26T06:55:50.036Z,61.40
2023-03-26T06:58:17.101Z,61.92
2023-03-26T07:00:44.017Z,62.02
2023-03-26T07:03:11.563Z,62.03
2023-03-26T07:05:41.195Z,61.63
2023-03-26T07:08:08.257Z,61.71
2023-03-26T07:10:35.200Z,62.50
2023-03-26T07:13:02.263Z,61.08
2023-03-26T07:15:29.489Z,61.17
2023-03-26T07:17:56.677Z,60.51
2023-03-26T07:20:23.798Z,59.51
2023-03-26T07:22:51.572Z,58.96
2023-03-26T07:25:19.454Z,56.38
2023-03-26T07:28:04.665Z,56.51
2023-03-26T07:30:44.163Z,56.29
2023-03-26T07:33:21.318Z,54.40
2023-03-26T07:36:17.018Z,54.85
2023-03-26T07:38:49.993Z,53.80
2023-03-26T07:41:38.263Z,53.32
2023-03-26T07:44:20.055Z,51.74
2023-03-26T07:46:48.108Z,50.90
2023-03-26T07:49:17.906Z,50.09
2023-03-26T07:51:44.924Z,50.87
2023-03-26T07:54:12.293Z,50.20
2023-03-26T07:56:51.692Z,49.89
2023-03-26T07:59:24.395Z,49.65
2023-03-26T08:02:09.850Z,50.06
2023-03-26T08:04:49.522Z,49.29
2023-03-26T08:07:34.324Z,49.87
2023-03-26T08:10:21.114Z,49.91
2023-03-26T08:13:06.144Z,50.86
2023-03-26T08:16:08.101Z,55.26
2023-03-26T08:19:07.974Z,53.17
2023-03-26T08:21:45.683Z,51.53
2023-03-26T08:24:43.598Z,51.44
2023-03-26T08:27:41.452Z,52.76
2023-03-26T08:30:08.399Z,53.08
2023-03-26T08:32:35.732Z,53.15
2023-03-26T08:35:04.041Z,52.92
2023-03-26T08:37:31.232Z,53.09
2023-03-26T08:39:58.088Z,52.81
2023-03-26T08:42:37.168Z,51.81
2023-03-26T08:45:29.780Z,51.44
2023-03-26T08:48:18.253Z,51.29
2023-03-26T08:51:07.849Z,52.31
2023-03-26T08:54:03.507Z,53.45
2023-03-26T08:56:42.367Z,54.93
2023-03-26T08:59:37.273Z,54.94
2023-03-26T09:02:22.081Z,55.11
2023-03-26T09:05:11.095Z,54.22
2023-03-26T09:08:02.157Z,54.94
2023-03-26T09:10:48.093Z,53.64
2023-03-26T09:13:45.764Z,51.47
2023-03-26T09:16:18.611Z,49.90
2023-03-26T09:19:06.707Z,50.37
2023-03-26T09:21:54.905Z,50.52
2023-03-26T09:24:35.513Z,51.22
2023-03-26T09:27:40.809Z,51.14
2023-03-26T09:30:28.436Z,51.10
2023-03-26T09:33:23.178Z,49.74
2023-03-26T09:35:54.211Z,50.77
2023-03-26T09:38:33.177Z,50.16
2023-03-26T09:41:18.261Z,50.28
2023-03-26T09:44:22.347Z,49.84
2023-03-26T09:47:12.876Z,48.27
2023-03-26T09:49:58.435Z,46.21
2023-03-26T09:53:02.620Z,45.49
2023-03-26T09:55:42.236Z,45.10
2023-03-26T09:58:40.849Z,43.27
2023-03-26T10:01:14.656Z,43.43
2023-03-26T10:03:57.709Z,43.44
2023-03-26T10:06:51.710Z,42.33
2023-03-26T10:09:39.655Z,42.37
2023-03-26T10:12:09.798Z,40.57
2023-03-26T10:14:54.849Z,39.72
2023-03-26T10:17:25.797Z,40.68
2023-03-26T10:20:04.875Z,39.39
2023-03-26T10:22:42.456Z,41.41
2023-03-26T10:25:24.663Z,42.40
2023-03-26T10:28:20.944Z,41.96
2023-03-26T10:31:15.342Z,42.10
2023-03-26T10:33:57.734Z,42.97
2023-03-26T10:36:34.380Z,44.56
2023-03-26T10:39:36.759Z,44.77
2023-03-26T10:42:43.527Z,53.62
2023-03-26T10:45:47.539Z,57.57
2023-03-26T10:48:56.609Z,59.90
2023-03-26T10:51:51.448Z,60.09
2023-03-26T10:54:27.409Z,58.31
2023-03-26T10:56:56.065Z,55.43
2023-03-26T10:59:27.406Z,52.83
2023-03-26T11:02:16.370Z,51.77
2023-03-26T11:05:14.315Z,52.95
2023-03-26T11:07:47.295Z,49.70
2023-03-26T11:10:25.008Z,50.35
2023-03-26T11:13:16.059Z,47.76
2023-03-26T11:16:03.715Z,47.53
2023-03-26T11:19:08.102Z,49.52
2023-03-26T11:21:53.813Z,49.94
2023-03-26T11:24:41.798Z,47.72
2023-03-26T11:27:35.001Z,47.55
2023-03-26T11:30:11.173Z,46.71
2023-03-26T11:32:46.143Z,45.51
2023-03-26T11:35:39.827Z,44.83
2023-03-26T11:38:28.967Z,46.53
2023-03-26T11:40:58.887Z,48.24
2023-03-26T11:43:35.779Z,47.80
2023-03-26T11:46:14.516Z,44.37
2023-03-26T11:48:53.344Z,43.63
2023-03-26T11:51:36.773Z,43.10
2023-03-26T11:54:05.666Z,43.47
2023-03-26T11:56:35.924Z,42.28
2023-03-26T11:59:09.370Z,41.40
2023-03-26T12:01:50.736Z,39.70
2023-03-26T12:04:26.413Z,39.97
2023-03-26T12:06:59.734Z,40.11
2023-03-26T12:09:27.008Z,38.55
2023-03-26T12:12:01.004Z,41.16
2023-03-26T12:14:32.044Z,42.08
2023-03-26T12:17:00.874Z,42.18
2023-03-26T12:19:39.487Z,41.94
2023-03-26T12:22:26.266Z,42.21
2023-03-26T12:25:02.567Z,42.27
2023-03-26T12:27:30.908Z,38.73
2023-03-26T12:30:25.727Z,38.81
2023-03-26T12:33:16.450Z,38.35
2023-03-26T12:35:43.722Z,34.64
2023-03-26T12:38:23.735Z,31.97
2023-03-26T12:43:40.481Z,30.97
2023-03-26T12:44:49.666Z,31.44
2023-03-26T12:48:01.103Z,28.58
2023-03-26T12:50:15.311Z,28.84
2023-03-26T12:52:45.183Z,31.76
2023-03-26T12:55:38.250Z,29.08
2023-03-26T12:58:39.539Z,29.78
2023-03-26T13:01:26.226Z,33.73
2023-03-26T13:04:14.507Z,34.76
2023-03-26T13:07:01.487Z,32.80
2023-03-26T13:10:08.544Z,33.88
2023-03-26T13:13:08.629Z,34.77
2023-03-26T13:15:35.336Z,33.16
2023-03-26T13:18:45.087Z,32.99
2023-03-26T13:21:35.049Z,29.08
2023-03-26T13:24:21.546Z,28.78
2023-03-26T13:27:08.932Z,28.14
2023-03-26T13:29:43.700Z,28.25
2023-03-26T13:32:57.373Z,29.36
2023-03-26T13:35:39.298Z,33.78
2023-03-26T13:38:29.689Z,34.96
2023-03-26T13:41:02.720Z,35.10
2023-03-26T13:43:37.249Z,34.22
2023-03-26T13:46:16.805Z,32.58
2023-03-26T13:48:53.043Z,28.28
2023-03-26T13:51:43.053Z,25.91
2023-03-26T13:54:30.554Z,23.71
2023-03-26T13:57:29.452Z,23.79
2023-03-26T14:00:13.914Z,29.07
2023-03-26T14:02:43.084Z,29.89
2023-03-26T14:05:15.241Z,31.34
2023-03-26T14:07:47.691Z,32.55
2023-03-26T14:10:23.795Z,31.14
2023-03-26T14:13:04.477Z,26.25
2023-03-26T14:15:42.159Z,27.32
2023-03-26T14:18:50.078Z,25.19
2023-03-26T14:21:35.725Z,28.76
2023-03-26T14:24:33.742Z,28.16
2023-03-26T14:27:45.381Z,28.70
2023-03-26T14:30:27.176Z,27.71
2023-03-26T14:33:27.161Z,27.58
2023-03-26T14:36:30.020Z,26.96
2023-03-26T14:39:22.583Z,27.78
2023-03-26T14:41:57.157Z,28.63
2023-03-26T14:45:05.887Z,28.79
2023-03-26T14:47:43.927Z,29.53
2023-03-26T14:50:31.531Z,29.90
2023-03-26T14:53:01.911Z,30.14
2023-03-26T14:55:50.808Z,29.76
2023-03-26T14:58:36.103Z,28.11
2023-03-26T15:01:22.850Z,27.47
2023-03-26T15:04:28.457Z,24.06
2023-03-26T15:07:23.184Z,21.32
2023-03-26T15:10:18.113Z,21.03
2023-03-26T15:13:12.564Z,20.59
2023-03-26T15:15:53.929Z,21.10
2023-03-26T15:18:55.953Z,22.47
2023-03-26T15:21:25.791Z,23.65
2023-03-26T15:24:26.909Z,23.66
2023-03-26T15:27:17.791Z,24.05
2023-03-26T15:30:15.161Z,25.18
2023-03-26T15:33:05.271Z,25.75
2023-03-26T15:35:41.329Z,26.27
2023-03-26T15:38:42.880Z,27.03
2023-03-26T15:41:37.850Z,26.95
2023-03-26T15:44:23.325Z,27.83
2023-03-26T15:46:56.318Z,29.21
2023-03-26T15:49:49.270Z,29.47
2023-03-26T15:52:33.157Z,28.88
2023-03-26T15:55:10.637Z,29.58
2023-03-26T15:58:02.444Z,30.27
2023-03-26T16:00:35.044Z,30.34
2023-03-26T16:03:10.935Z,30.37
2023-03-26T16:05:47.508Z,31.12
2023-03-26T16:08:24.566Z,31.96
2023-03-26T16:10:57.307Z,32.56
2023-03-26T16:13:30.626Z,33.96
2023-03-26T16:16:04.102Z,34.62
2023-03-26T16:18:31.118Z,34.99
2023-03-26T16:21:31.994Z,35.54
2023-03-26T16:24:02.142Z,35.86
2023-03-26T16:26:44.590Z,36.53
2023-03-26T16:29:14.392Z,36.55
2023-03-26T16:32:09.679Z,37.14
2023-03-26T16:34:51.053Z,37.18
2023-03-26T16:37:36.582Z,37.17
2023-03-26T16:40:20.706Z,37.20
2023-03-26T16:43:36.194Z,37.67
2023-03-26T16:46:30.543Z,37.52
2023-03-26T16:49:21.008Z,37.41
2023-03-26T16:51:57.157Z,37.90
2023-03-26T16:54:33.341Z,38.14
2023-03-26T16:57:26.064Z,38.13
2023-03-26T17:00:23.527Z,38.78
2023-03-26T17:03:08.081Z,38.51
2023-03-26T17:05:51.205Z,38.82
2023-03-26T17:08:42.664Z,39.10
2023-03-26T17:11:22.698Z,39.57
2023-03-26T17:14:12.080Z,39.92
2023-03-26T17:16:48.694Z,40.03
2023-03-26T17:19:29.659Z,40.58
2023-03-26T17:22:11.156Z,40.63
2023-03-26T17:24:53.139Z,40.93
2023-03-26T17:27:55.796Z,41.23
2023-03-26T17:30:22.760Z,40.94
2023-03-26T17:32:54.306Z,41.32
2023-03-26T17:35:40.374Z,41.28
2023-03-26T17:38:17.692Z,41.75
2023-03-26T17:40:53.051Z,41.37
2023-03-26T17:43:46.151Z,41.56
2023-03-26T17:46:33.267Z,41.97
2023-03-26T17:49:14.769Z,41.79
2023-03-26T17:52:04.145Z,41.96
2023-03-26T17:54:41.174Z,42.36
2023-03-26T17:57:16.701Z,41.94
2023-03-26T17:59:45.546Z,42.55
2023-03-26T18:02:30.112Z,42.25
2023-03-26T18:04:57.639Z,42.02
2023-03-26T18:08:08.170Z,42.27
2023-03-26T18:10:52.199Z,42.69
2023-03-26T18:13:18.976Z,42.91
2023-03-26T18:16:24.433Z,42.71
2023-03-26T18:19:00.155Z,42.67
2023-03-26T18:21:37.535Z,42.48
2023-03-26T18:24:07.098Z,42.63
2023-03-26T18:26:39.859Z,43.11
2023-03-26T18:29:42.913Z,42.89
2023-03-26T18:32:10.069Z,42.73
2023-03-26T18:34:50.074Z,42.68
2023-03-26T18:37:34.391Z,42.84
2023-03-26T18:40:18.303Z,42.51
2023-03-26T18:42:52.353Z,42.68
2023-03-26T18:45:28.983Z,42.89
2023-03-26T18:47:59.858Z,43.02
2023-03-26T18:50:36.920Z,42.81
2023-03-26T18:53:07.039Z,43.01
2023-03-26T18:55:39.554Z,42.78
2023-03-26T18:58:32.800Z,43.61
2023-03-26T19:01:02.309Z,43.66
2023-03-26T19:03:35.497Z,43.30
2023-03-26T19:06:08.259Z,43.72
2023-03-26T19:08:38.929Z,43.40
2023-03-26T19:11:10.789Z,43.78
2023-03-26T19:13:41.900Z,43.58
2023-03-26T19:16:33.914Z,44.29
2023-03-26T19:19:05.263Z,44.45
2023-03-26T19:21:34.391Z,44.82
2023-03-26T19:24:03.734Z,45.13
2023-03-26T19:26:31.541Z,45.57
2023-03-26T19:29:00.752Z,45.88
2023-03-26T19:31:38.792Z,45.97
2023-03-26T19:34:12.087Z,46.27
2023-03-26T19:36:58.135Z,46.80
2023-03-26T19:39:37.341Z,47.17
2023-03-26T19:42:07.955Z,47.59
2023-03-26T19:44:42.083Z,47.44
2023-03-26T19:47:22.040Z,47.91
2023-03-26T19:49:59.079Z,47.84
2023-03-26T19:52:33.900Z,48.02
2023-03-26T19:55:15.533Z,47.90
2023-03-26T19:57:43.188Z,48.32
2023-03-26T20:00:14.268Z,48.22
2023-03-26T20:02:42.354Z,48.36
2023-03-26T20:05:19.440Z,48.69
2023-03-26T20:07:46.240Z,48.77
2023-03-26T20:10:13.417Z,49.67
2023-03-26T20:12:40.539Z,49.12
2023-03-26T20:15:19.474Z,48.69
2023-03-26T20:17:50.002Z,48.58
2023-03-26T20:20:17.530Z,48.40
2023-03-26T20:22:46.314Z,47.93
2023-03-26T20:25:33.874Z,46.94
2023-03-26T20:28:00.715Z,47.06
2023-03-26T20:30:37.515Z,46.76
2023-03-26T20:33:12.090Z,47.05
2023-03-26T20:35:41.547Z,47.38
2023-03-26T20:38:09.837Z,46.76
2023-03-26T20:40:38.554Z,46.52
2023-03-26T20:43:12.100Z,47.17
2023-03-26T20:45:39.020Z,47.48
2023-03-26T20:48:11.990Z,46.86
2023-03-26T20:51:01.829Z,47.16
2023-03-26T20:53:30.481Z,47.14
2023-03-26T20:55:57.830Z,47.61
2023-03-26T20:58:31.506Z,47.81
2023-03-26T21:01:02.558Z,48.44
2023-03-26T21:03:29.636Z,48.08
2023-03-26T21:06:00.822Z,48.21
2023-03-26T21:08:34.073Z,48.90
2023-03-26T21:11:02.221Z,48.33
2023-03-26T21:13:44.354Z,48.70
2023-03-26T21:16:13.136Z,49.02
2023-03-26T21:18:40.217Z,49.39
2023-03-26T21:21:41.974Z,49.48
2023-03-26T21:24:21.059Z,49.80
2023-03-26T21:26:53.061Z,50.35
2023-03-26T21:29:20.109Z,51.58
2023-03-26T21:31:47.487Z,51.98
2023-03-26T21:34:14.465Z,52.19
2023-03-26T21:36:42.110Z,52.49
2023-03-26T21:39:10.984Z,52.80
2023-03-26T21:41:48.537Z,56.56
2023-03-26T21:44:32.400Z,68.04
2023-03-26T21:46:59.822Z,73.80
2023-03-26T21:49:27.128Z,74.21
2023-03-26T21:51:54.493Z,76.21
2023-03-26T21:54:27.346Z,77.55
2023-03-26T21:57:31.183Z,78.09
2023-03-26T22:00:11.299Z,86.58
2023-03-26T22:03:04.734Z,85.89
2023-03-26T22:05:31.644Z,82.37
2023-03-26T22:08:03.972Z,83.63
2023-03-26T22:10:32.037Z,81.50
2023-03-26T22:12:59.536Z,83.56
2023-03-26T22:15:30.404Z,82.88
2023-03-26T22:18:04.213Z,83.92
2023-03-26T22:20:31.256Z,82.53
2023-03-26T22:22:59.132Z,82.49
2023-03-26T22:25:25.938Z,83.27
2023-03-26T22:27:53.904Z,83.00
2023-03-26T22:30:20.905Z,83.11
2023-03-26T22:32:48.914Z,83.90
2023-03-26T22:35:16.617Z,86.42
2023-03-26T22:37:43.797Z,87.27
2023-03-26T22:40:13.519Z,89.12
2023-03-26T22:42:41.499Z,91.20
2023-03-26T22:45:11.833Z,92.66
2023-03-26T22:47:38.972Z,92.11
2023-03-26T22:50:07.724Z,100.00
2023-03-26T22:52:36.514Z,100.00
2023-03-26T22:55:04.813Z,100.00
2023-03-26T22:57:31.964Z,100.00
2023-03-26T23:00:07.692Z,100.00
2023-03-26T23:02:34.798Z,100.00
2023-03-26T23:05:01.734Z,100.00
2023-03-26T23:07:28.837Z,100.00
2023-03-26T23:09:55.636Z,100.00
2023-03-26T23:12:22.909Z,100.00
2023-03-26T23:14:52.918Z,100.00
2023-03-26T23:17:20.051Z,100.00
2023-03-26T23:19:46.903Z,100.00
2023-03-26T23:22:13.975Z,100.00
2023-03-26T23:24:40.857Z,100.00
2023-03-26T23:27:08.605Z,100.00
2023-03-26T23:29:36.494Z,100.00
2023-03-26T23:32:03.689Z,100.00
2023-03-26T23:34:52.138Z,100.00
2023-03-26T23:37:23.175Z,100.00
2023-03-26T23:39:53.711Z,100.00
2023-03-26T23:42:29.290Z,100.00
2023-03-26T23:44:57.588Z,100.00
2023-03-26T23:47:24.806Z,100.00
2023-03-26T23:49:51.661Z,100.00
2023-03-26T23:52:18.798Z,100.00
2023-03-26T23:54:45.678Z,100.00
2023-03-26T23:57:13.831Z,100.00
2023-03-26T23:59:41.508Z,100.00
